Bellview, Florida
Current Conditions -  °F | °C
As of 3:25 AM on Monday 24 Nov 2014 (Local Time) from KNPA Reporting Station
Broken Clouds Broken Clouds  
Wind Chill: 70°   Ceiling: 900
Heat Index: 70°   Visibility: 7mi
Dew Point: 69°   Wind: 6mph
Humidity: 97%   Direction: 240°WSW
Pressure: 29.75"   Gusts: NA
Location:  30.46°N, 87.31°W
Report Text: KNPA 240925Z AUTO 24005KT 7SM BKN009 21/21 A2975 RMK AO2 CIG 006V012 T02110206
Loading
Personal Weather Stations






























Interactive Weather Map New forecast layout! Learn more

10-Day Weather Forecast

Advertisements
Track Severe Weather on mobile